Aviation Digital Data Service (ADDS)

Output produced by METARs form (2136 UTC 24 March 2019)
found at http://www.aviationweather.gov/metar/data/
 
TAF TNCA 241800Z 2418/2518 09018G30KT 9999 SCT022